sensor_id;sensor_type;location;lat;lon;timestamp;P1;durP1;ratioP1;P2;durP2;ratioP2
2720;SDS011;1368;49.484;11.112;2023-08-17T00:01:26;14.43;;;10.00;;
2720;SDS011;1368;49.484;11.112;2023-08-17T00:03:51;11.13;;;10.03;;
2720;SDS011;1368;49.484;11.112;2023-08-17T00:06:17;12.00;;;9.50;;
2720;SDS011;1368;49.484;11.112;2023-08-17T00:08:42;11.43;;;9.80;;
2720;SDS011;1368;49.484;11.112;2023-08-17T00:11:08;16.33;;;10.50;;
2720;SDS011;1368;49.484;11.112;2023-08-17T00:13:34;15.37;;;9.60;;
2720;SDS011;1368;49.484;11.112;2023-08-17T00:15:59;10.83;;;9.70;;
2720;SDS011;1368;49.484;11.112;2023-08-17T00:18:25;17.03;;;10.23;;
2720;SDS011;1368;49.484;11.112;2023-08-17T00:20:53;12.73;;;10.70;;
2720;SDS011;1368;49.484;11.112;2023-08-17T00:23:18;10.70;;;9.70;;
2720;SDS011;1368;49.484;11.112;2023-08-17T00:25:45;13.63;;;10.70;;
2720;SDS011;1368;49.484;11.112;2023-08-17T00:28:12;13.83;;;10.23;;
2720;SDS011;1368;49.484;11.112;2023-08-17T00:30:38;12.93;;;10.83;;
2720;SDS011;1368;49.484;11.112;2023-08-17T00:33:04;13.50;;;10.17;;
2720;SDS011;1368;49.484;11.112;2023-08-17T00:35:30;18.33;;;10.50;;
2720;SDS011;1368;49.484;11.112;2023-08-17T00:37:56;12.73;;;11.40;;
2720;SDS011;1368;49.484;11.112;2023-08-17T00:40:21;13.20;;;10.47;;
2720;SDS011;1368;49.484;11.112;2023-08-17T00:42:47;10.83;;;9.73;;
2720;SDS011;1368;49.484;11.112;2023-08-17T00:45:12;16.10;;;10.10;;
2720;SDS011;1368;49.484;11.112;2023-08-17T00:47:38;13.13;;;10.20;;
2720;SDS011;1368;49.484;11.112;2023-08-17T00:50:04;11.63;;;10.53;;
2720;SDS011;1368;49.484;11.112;2023-08-17T00:52:31;13.37;;;9.90;;
2720;SDS011;1368;49.484;11.112;2023-08-17T00:54:58;15.67;;;11.90;;
2720;SDS011;1368;49.484;11.112;2023-08-17T00:57:25;17.73;;;11.50;;
2720;SDS011;1368;49.484;11.112;2023-08-17T00:59:52;14.10;;;11.17;;
2720;SDS011;1368;49.484;11.112;2023-08-17T01:02:18;14.37;;;10.57;;
2720;SDS011;1368;49.484;11.112;2023-08-17T01:04:44;15.80;;;10.43;;
2720;SDS011;1368;49.484;11.112;2023-08-17T01:07:09;14.83;;;10.43;;
2720;SDS011;1368;49.484;11.112;2023-08-17T01:09:35;13.40;;;11.97;;
2720;SDS011;1368;49.484;11.112;2023-08-17T01:12:19;13.40;;;11.63;;
2720;SDS011;1368;49.484;11.112;2023-08-17T01:15:12;14.30;;;11.23;;
2720;SDS011;1368;49.484;11.112;2023-08-17T01:18:04;12.27;;;11.07;;
2720;SDS011;1368;49.484;11.112;2023-08-17T01:20:33;13.50;;;11.70;;
2720;SDS011;1368;49.484;11.112;2023-08-17T01:23:04;13.10;;;11.10;;
2720;SDS011;1368;49.484;11.112;2023-08-17T01:25:31;15.23;;;12.27;;
2720;SDS011;1368;49.484;11.112;2023-08-17T01:28:01;12.40;;;11.20;;
2720;SDS011;1368;49.484;11.112;2023-08-17T01:30:32;13.20;;;11.20;;
2720;SDS011;1368;49.484;11.112;2023-08-17T01:33:09;22.90;;;12.10;;
2720;SDS011;1368;49.484;11.112;2023-08-17T01:35:44;13.43;;;11.27;;
2720;SDS011;1368;49.484;11.112;2023-08-17T01:38:24;14.37;;;10.97;;
2720;SDS011;1368;49.484;11.112;2023-08-17T01:40:52;14.30;;;11.00;;
2720;SDS011;1368;49.484;11.112;2023-08-17T01:43:18;16.93;;;12.67;;
2720;SDS011;1368;49.484;11.112;2023-08-17T01:45:45;13.07;;;11.70;;
2720;SDS011;1368;49.484;11.112;2023-08-17T01:48:11;16.73;;;12.37;;
2720;SDS011;1368;49.484;11.112;2023-08-17T01:50:36;14.07;;;11.40;;
2720;SDS011;1368;49.484;11.112;2023-08-17T01:53:02;13.53;;;11.60;;
2720;SDS011;1368;49.484;11.112;2023-08-17T01:55:27;13.47;;;12.07;;
2720;SDS011;1368;49.484;11.112;2023-08-17T01:57:53;13.87;;;11.33;;
2720;SDS011;1368;49.484;11.112;2023-08-17T02:00:18;15.37;;;12.07;;
2720;SDS011;1368;49.484;11.112;2023-08-17T02:02:44;14.00;;;12.30;;
2720;SDS011;1368;49.484;11.112;2023-08-17T02:05:10;18.63;;;11.77;;
2720;SDS011;1368;49.484;11.112;2023-08-17T02:07:35;16.30;;;13.37;;
2720;SDS011;1368;49.484;11.112;2023-08-17T02:10:01;14.40;;;12.87;;
2720;SDS011;1368;49.484;11.112;2023-08-17T02:12:27;17.43;;;11.70;;
2720;SDS011;1368;49.484;11.112;2023-08-17T02:14:52;14.23;;;11.80;;
2720;SDS011;1368;49.484;11.112;2023-08-17T02:17:18;13.97;;;12.30;;
2720;SDS011;1368;49.484;11.112;2023-08-17T02:19:44;13.27;;;11.87;;
2720;SDS011;1368;49.484;11.112;2023-08-17T02:22:10;14.30;;;11.77;;
2720;SDS011;1368;49.484;11.112;2023-08-17T02:24:35;14.37;;;12.10;;
2720;SDS011;1368;49.484;11.112;2023-08-17T02:27:01;14.53;;;12.37;;
2720;SDS011;1368;49.484;11.112;2023-08-17T02:29:27;14.77;;;12.47;;
2720;SDS011;1368;49.484;11.112;2023-08-17T02:31:53;13.60;;;12.17;;
2720;SDS011;1368;49.484;11.112;2023-08-17T02:34:18;14.07;;;12.13;;
2720;SDS011;1368;49.484;11.112;2023-08-17T02:36:44;19.93;;;12.90;;
2720;SDS011;1368;49.484;11.112;2023-08-17T02:39:09;21.57;;;11.80;;
2720;SDS011;1368;49.484;11.112;2023-08-17T02:41:35;15.03;;;12.60;;
2720;SDS011;1368;49.484;11.112;2023-08-17T02:44:00;13.77;;;11.70;;
2720;SDS011;1368;49.484;11.112;2023-08-17T02:46:27;17.83;;;12.10;;
2720;SDS011;1368;49.484;11.112;2023-08-17T02:48:52;13.70;;;11.87;;
2720;SDS011;1368;49.484;11.112;2023-08-17T02:51:18;14.87;;;13.30;;
2720;SDS011;1368;49.484;11.112;2023-08-17T02:53:44;14.10;;;11.17;;
2720;SDS011;1368;49.484;11.112;2023-08-17T02:56:09;15.40;;;11.50;;
2720;SDS011;1368;49.484;11.112;2023-08-17T02:58:37;16.07;;;12.43;;
2720;SDS011;1368;49.484;11.112;2023-08-17T03:01:05;13.10;;;11.80;;
2720;SDS011;1368;49.484;11.112;2023-08-17T03:03:31;12.60;;;11.30;;
2720;SDS011;1368;49.484;11.112;2023-08-17T03:05:57;12.63;;;11.37;;
2720;SDS011;1368;49.484;11.112;2023-08-17T03:08:22;13.87;;;12.13;;
2720;SDS011;1368;49.484;11.112;2023-08-17T03:10:48;17.10;;;13.40;;
2720;SDS011;1368;49.484;11.112;2023-08-17T03:13:14;19.77;;;12.63;;
2720;SDS011;1368;49.484;11.112;2023-08-17T03:15:39;13.47;;;11.80;;
2720;SDS011;1368;49.484;11.112;2023-08-17T03:18:05;13.73;;;12.33;;
2720;SDS011;1368;49.484;11.112;2023-08-17T03:20:31;14.57;;;12.70;;
2720;SDS011;1368;49.484;11.112;2023-08-17T03:22:57;14.83;;;13.03;;
2720;SDS011;1368;49.484;11.112;2023-08-17T03:25:22;16.13;;;13.00;;
2720;SDS011;1368;49.484;11.112;2023-08-17T03:27:48;15.17;;;12.87;;
2720;SDS011;1368;49.484;11.112;2023-08-17T03:30:13;14.03;;;12.43;;
2720;SDS011;1368;49.484;11.112;2023-08-17T03:32:39;16.00;;;12.10;;
2720;SDS011;1368;49.484;11.112;2023-08-17T03:35:06;14.97;;;12.33;;
2720;SDS011;1368;49.484;11.112;2023-08-17T03:37:32;14.73;;;13.00;;
2720;SDS011;1368;49.484;11.112;2023-08-17T03:39:57;16.00;;;13.60;;
2720;SDS011;1368;49.484;11.112;2023-08-17T03:42:23;15.00;;;13.53;;
2720;SDS011;1368;49.484;11.112;2023-08-17T03:44:48;15.07;;;13.30;;
2720;SDS011;1368;49.484;11.112;2023-08-17T03:47:14;13.77;;;12.30;;
2720;SDS011;1368;49.484;11.112;2023-08-17T03:49:40;14.07;;;12.27;;
2720;SDS011;1368;49.484;11.112;2023-08-17T03:52:05;15.10;;;13.60;;
2720;SDS011;1368;49.484;11.112;2023-08-17T03:54:31;15.80;;;13.30;;
2720;SDS011;1368;49.484;11.112;2023-08-17T03:56:56;14.23;;;12.50;;
2720;SDS011;1368;49.484;11.112;2023-08-17T03:59:22;14.70;;;13.20;;
2720;SDS011;1368;49.484;11.112;2023-08-17T04:01:47;15.50;;;12.60;;
2720;SDS011;1368;49.484;11.112;2023-08-17T04:04:15;14.03;;;12.53;;
2720;SDS011;1368;49.484;11.112;2023-08-17T04:06:40;14.07;;;12.67;;
2720;SDS011;1368;49.484;11.112;2023-08-17T04:09:06;14.37;;;12.97;;
2720;SDS011;1368;49.484;11.112;2023-08-17T04:11:34;14.77;;;13.13;;
2720;SDS011;1368;49.484;11.112;2023-08-17T04:14:00;15.40;;;13.80;;
2720;SDS011;1368;49.484;11.112;2023-08-17T04:16:25;15.87;;;13.10;;
2720;SDS011;1368;49.484;11.112;2023-08-17T04:18:51;15.50;;;13.47;;
2720;SDS011;1368;49.484;11.112;2023-08-17T04:21:16;14.40;;;12.90;;
2720;SDS011;1368;49.484;11.112;2023-08-17T04:23:42;17.17;;;14.40;;
2720;SDS011;1368;49.484;11.112;2023-08-17T04:26:08;16.70;;;11.90;;
2720;SDS011;1368;49.484;11.112;2023-08-17T04:28:33;16.33;;;13.13;;
2720;SDS011;1368;49.484;11.112;2023-08-17T04:30:59;15.50;;;12.87;;
2720;SDS011;1368;49.484;11.112;2023-08-17T04:33:24;16.07;;;14.37;;
2720;SDS011;1368;49.484;11.112;2023-08-17T04:35:50;18.87;;;13.80;;
2720;SDS011;1368;49.484;11.112;2023-08-17T04:38:15;14.63;;;13.17;;
2720;SDS011;1368;49.484;11.112;2023-08-17T04:40:41;16.20;;;14.63;;
2720;SDS011;1368;49.484;11.112;2023-08-17T04:43:06;16.23;;;14.53;;
2720;SDS011;1368;49.484;11.112;2023-08-17T04:45:32;18.03;;;13.03;;
2720;SDS011;1368;49.484;11.112;2023-08-17T04:47:57;14.43;;;12.47;;
2720;SDS011;1368;49.484;11.112;2023-08-17T04:50:23;15.20;;;12.40;;
2720;SDS011;1368;49.484;11.112;2023-08-17T04:52:48;15.23;;;12.87;;
2720;SDS011;1368;49.484;11.112;2023-08-17T04:55:14;14.77;;;13.37;;
2720;SDS011;1368;49.484;11.112;2023-08-17T04:57:40;14.20;;;12.73;;
2720;SDS011;1368;49.484;11.112;2023-08-17T05:00:05;18.20;;;13.03;;
2720;SDS011;1368;49.484;11.112;2023-08-17T05:02:35;19.23;;;13.43;;
2720;SDS011;1368;49.484;11.112;2023-08-17T05:05:02;15.10;;;13.60;;
2720;SDS011;1368;49.484;11.112;2023-08-17T05:07:29;18.33;;;13.37;;
2720;SDS011;1368;49.484;11.112;2023-08-17T05:09:54;16.50;;;14.13;;
2720;SDS011;1368;49.484;11.112;2023-08-17T05:12:20;14.97;;;12.80;;
2720;SDS011;1368;49.484;11.112;2023-08-17T05:14:46;13.73;;;12.33;;
2720;SDS011;1368;49.484;11.112;2023-08-17T05:17:11;12.60;;;11.27;;
2720;SDS011;1368;49.484;11.112;2023-08-17T05:19:37;16.33;;;11.23;;
2720;SDS011;1368;49.484;11.112;2023-08-17T05:22:04;12.23;;;10.87;;
2720;SDS011;1368;49.484;11.112;2023-08-17T05:24:31;13.27;;;11.17;;
2720;SDS011;1368;49.484;11.112;2023-08-17T05:26:56;12.43;;;9.93;;
2720;SDS011;1368;49.484;11.112;2023-08-17T05:29:22;11.40;;;10.07;;
2720;SDS011;1368;49.484;11.112;2023-08-17T05:31:48;10.93;;;9.93;;
2720;SDS011;1368;49.484;11.112;2023-08-17T05:34:13;12.10;;;10.30;;
2720;SDS011;1368;49.484;11.112;2023-08-17T05:36:39;12.10;;;8.97;;
2720;SDS011;1368;49.484;11.112;2023-08-17T05:39:06;12.30;;;10.27;;
2720;SDS011;1368;49.484;11.112;2023-08-17T05:41:31;10.97;;;9.97;;
2720;SDS011;1368;49.484;11.112;2023-08-17T05:43:57;13.03;;;9.20;;
2720;SDS011;1368;49.484;11.112;2023-08-17T05:46:23;9.27;;;8.37;;
2720;SDS011;1368;49.484;11.112;2023-08-17T05:48:49;10.07;;;9.07;;
2720;SDS011;1368;49.484;11.112;2023-08-17T05:51:14;11.40;;;9.60;;
2720;SDS011;1368;49.484;11.112;2023-08-17T05:53:40;10.43;;;8.50;;
2720;SDS011;1368;49.484;11.112;2023-08-17T05:56:06;10.50;;;8.27;;
2720;SDS011;1368;49.484;11.112;2023-08-17T05:58:32;10.37;;;8.70;;
2720;SDS011;1368;49.484;11.112;2023-08-17T06:01:04;10.40;;;9.03;;
2720;SDS011;1368;49.484;11.112;2023-08-17T06:03:31;9.73;;;8.73;;
2720;SDS011;1368;49.484;11.112;2023-08-17T06:05:57;9.57;;;8.67;;
2720;SDS011;1368;49.484;11.112;2023-08-17T06:08:22;9.00;;;8.20;;
2720;SDS011;1368;49.484;11.112;2023-08-17T06:10:48;9.03;;;8.13;;
2720;SDS011;1368;49.484;11.112;2023-08-17T06:13:13;9.20;;;8.30;;
2720;SDS011;1368;49.484;11.112;2023-08-17T06:15:39;13.40;;;8.97;;
2720;SDS011;1368;49.484;11.112;2023-08-17T06:18:04;11.93;;;8.30;;
2720;SDS011;1368;49.484;11.112;2023-08-17T06:20:31;9.20;;;8.37;;
2720;SDS011;1368;49.484;11.112;2023-08-17T06:22:56;12.43;;;8.10;;
2720;SDS011;1368;49.484;11.112;2023-08-17T06:25:22;8.10;;;7.30;;
2720;SDS011;1368;49.484;11.112;2023-08-17T06:27:49;12.83;;;9.07;;
2720;SDS011;1368;49.484;11.112;2023-08-17T06:30:14;8.63;;;7.73;;
2720;SDS011;1368;49.484;11.112;2023-08-17T06:32:40;9.13;;;8.17;;
2720;SDS011;1368;49.484;11.112;2023-08-17T06:35:06;8.70;;;7.90;;
2720;SDS011;1368;49.484;11.112;2023-08-17T06:37:32;9.20;;;8.30;;
2720;SDS011;1368;49.484;11.112;2023-08-17T06:39:58;14.30;;;8.60;;
2720;SDS011;1368;49.484;11.112;2023-08-17T06:42:23;14.13;;;9.53;;
2720;SDS011;1368;49.484;11.112;2023-08-17T06:44:49;11.73;;;8.20;;
2720;SDS011;1368;49.484;11.112;2023-08-17T06:47:14;8.87;;;8.03;;
2720;SDS011;1368;49.484;11.112;2023-08-17T06:49:40;8.80;;;7.90;;
2720;SDS011;1368;49.484;11.112;2023-08-17T06:52:05;9.13;;;8.23;;
2720;SDS011;1368;49.484;11.112;2023-08-17T06:54:31;8.27;;;7.53;;
2720;SDS011;1368;49.484;11.112;2023-08-17T06:56:57;10.70;;;9.20;;
2720;SDS011;1368;49.484;11.112;2023-08-17T06:59:23;9.20;;;8.40;;
2720;SDS011;1368;49.484;11.112;2023-08-17T07:01:48;7.83;;;7.13;;
2720;SDS011;1368;49.484;11.112;2023-08-17T07:04:14;10.00;;;8.30;;
2720;SDS011;1368;49.484;11.112;2023-08-17T07:06:40;9.20;;;8.30;;
2720;SDS011;1368;49.484;11.112;2023-08-17T07:09:06;9.27;;;8.37;;
2720;SDS011;1368;49.484;11.112;2023-08-17T07:11:32;10.93;;;7.87;;
2720;SDS011;1368;49.484;11.112;2023-08-17T07:13:57;8.50;;;7.70;;
2720;SDS011;1368;49.484;11.112;2023-08-17T07:16:23;11.20;;;8.10;;
2720;SDS011;1368;49.484;11.112;2023-08-17T07:18:49;8.70;;;7.57;;
2720;SDS011;1368;49.484;11.112;2023-08-17T07:21:14;9.33;;;8.20;;
2720;SDS011;1368;49.484;11.112;2023-08-17T07:23:43;10.10;;;8.60;;
2720;SDS011;1368;49.484;11.112;2023-08-17T07:26:09;10.17;;;8.07;;
2720;SDS011;1368;49.484;11.112;2023-08-17T07:28:35;11.07;;;8.10;;
2720;SDS011;1368;49.484;11.112;2023-08-17T07:31:00;10.30;;;7.97;;
2720;SDS011;1368;49.484;11.112;2023-08-17T07:33:26;9.10;;;8.10;;
2720;SDS011;1368;49.484;11.112;2023-08-17T07:35:52;9.33;;;8.43;;
2720;SDS011;1368;49.484;11.112;2023-08-17T07:38:19;9.30;;;8.40;;
2720;SDS011;1368;49.484;11.112;2023-08-17T07:40:44;9.23;;;7.63;;
2720;SDS011;1368;49.484;11.112;2023-08-17T07:43:10;9.60;;;8.50;;
2720;SDS011;1368;49.484;11.112;2023-08-17T07:45:35;8.77;;;7.83;;
2720;SDS011;1368;49.484;11.112;2023-08-17T07:48:01;9.93;;;8.17;;
2720;SDS011;1368;49.484;11.112;2023-08-17T07:50:27;9.37;;;7.97;;
2720;SDS011;1368;49.484;11.112;2023-08-17T07:52:52;8.33;;;7.67;;
2720;SDS011;1368;49.484;11.112;2023-08-17T07:55:18;9.03;;;8.13;;
2720;SDS011;1368;49.484;11.112;2023-08-17T07:57:43;9.50;;;8.10;;
2720;SDS011;1368;49.484;11.112;2023-08-17T08:00:09;9.63;;;8.20;;
2720;SDS011;1368;49.484;11.112;2023-08-17T08:02:35;10.13;;;8.90;;
2720;SDS011;1368;49.484;11.112;2023-08-17T08:05:00;8.73;;;7.93;;
2720;SDS011;1368;49.484;11.112;2023-08-17T08:07:26;11.97;;;8.70;;
2720;SDS011;1368;49.484;11.112;2023-08-17T08:09:51;9.30;;;8.50;;
2720;SDS011;1368;49.484;11.112;2023-08-17T08:12:17;11.03;;;8.23;;
2720;SDS011;1368;49.484;11.112;2023-08-17T08:14:42;10.80;;;9.47;;
2720;SDS011;1368;49.484;11.112;2023-08-17T08:17:08;8.97;;;8.10;;
2720;SDS011;1368;49.484;11.112;2023-08-17T08:19:34;11.17;;;9.00;;
2720;SDS011;1368;49.484;11.112;2023-08-17T08:22:00;9.50;;;8.50;;
2720;SDS011;1368;49.484;11.112;2023-08-17T08:24:27;8.97;;;8.17;;
2720;SDS011;1368;49.484;11.112;2023-08-17T08:26:58;8.80;;;7.93;;
2720;SDS011;1368;49.484;11.112;2023-08-17T08:29:24;9.20;;;8.30;;
2720;SDS011;1368;49.484;11.112;2023-08-17T08:31:50;11.20;;;9.50;;
2720;SDS011;1368;49.484;11.112;2023-08-17T08:34:15;9.03;;;8.23;;
2720;SDS011;1368;49.484;11.112;2023-08-17T08:36:41;9.37;;;8.40;;
2720;SDS011;1368;49.484;11.112;2023-08-17T08:39:06;9.30;;;8.20;;
2720;SDS011;1368;49.484;11.112;2023-08-17T08:41:32;9.20;;;8.30;;
2720;SDS011;1368;49.484;11.112;2023-08-17T08:43:59;9.90;;;7.83;;
2720;SDS011;1368;49.484;11.112;2023-08-17T08:46:24;8.63;;;7.83;;
2720;SDS011;1368;49.484;11.112;2023-08-17T08:48:54;9.63;;;8.60;;
2720;SDS011;1368;49.484;11.112;2023-08-17T08:51:23;9.23;;;8.33;;
2720;SDS011;1368;49.484;11.112;2023-08-17T08:53:54;8.70;;;7.43;;
2720;SDS011;1368;49.484;11.112;2023-08-17T08:56:28;8.90;;;8.10;;
2720;SDS011;1368;49.484;11.112;2023-08-17T08:58:56;8.70;;;7.83;;
2720;SDS011;1368;49.484;11.112;2023-08-17T09:01:24;9.57;;;8.67;;
2720;SDS011;1368;49.484;11.112;2023-08-17T09:03:50;11.13;;;8.93;;
2720;SDS011;1368;49.484;11.112;2023-08-17T09:06:18;10.03;;;8.40;;
2720;SDS011;1368;49.484;11.112;2023-08-17T09:08:45;9.73;;;8.80;;
2720;SDS011;1368;49.484;11.112;2023-08-17T09:11:13;12.93;;;9.60;;
2720;SDS011;1368;49.484;11.112;2023-08-17T09:13:38;10.23;;;9.33;;
2720;SDS011;1368;49.484;11.112;2023-08-17T09:16:04;9.57;;;8.67;;
2720;SDS011;1368;49.484;11.112;2023-08-17T09:18:29;9.43;;;8.47;;
2720;SDS011;1368;49.484;11.112;2023-08-17T09:20:55;9.90;;;9.00;;
2720;SDS011;1368;49.484;11.112;2023-08-17T09:23:21;9.67;;;8.83;;
2720;SDS011;1368;49.484;11.112;2023-08-17T09:25:48;11.83;;;8.73;;
2720;SDS011;1368;49.484;11.112;2023-08-17T09:28:18;8.60;;;7.90;;
2720;SDS011;1368;49.484;11.112;2023-08-17T09:33:24;10.37;;;8.87;;
2720;SDS011;1368;49.484;11.112;2023-08-17T09:35:52;9.23;;;8.37;;
2720;SDS011;1368;49.484;11.112;2023-08-17T09:38:19;9.60;;;8.67;;
2720;SDS011;1368;49.484;11.112;2023-08-17T09:40:46;10.10;;;9.20;;
2720;SDS011;1368;49.484;11.112;2023-08-17T09:43:15;10.40;;;9.50;;
2720;SDS011;1368;49.484;11.112;2023-08-17T09:45:45;10.03;;;9.13;;
2720;SDS011;1368;49.484;11.112;2023-08-17T09:48:14;11.13;;;9.90;;
2720;SDS011;1368;49.484;11.112;2023-08-17T09:50:41;11.13;;;10.07;;
2720;SDS011;1368;49.484;11.112;2023-08-17T09:53:07;11.37;;;10.37;;
2720;SDS011;1368;49.484;11.112;2023-08-17T09:55:41;12.67;;;10.23;;
2720;SDS011;1368;49.484;11.112;2023-08-17T09:58:08;13.03;;;9.30;;
2720;SDS011;1368;49.484;11.112;2023-08-17T10:00:33;11.37;;;10.33;;
2720;SDS011;1368;49.484;11.112;2023-08-17T10:03:01;13.63;;;10.17;;
2720;SDS011;1368;49.484;11.112;2023-08-17T10:05:28;11.40;;;10.20;;
2720;SDS011;1368;49.484;11.112;2023-08-17T10:07:57;9.97;;;9.07;;
2720;SDS011;1368;49.484;11.112;2023-08-17T10:10:25;10.70;;;9.77;;
2720;SDS011;1368;49.484;11.112;2023-08-17T10:12:59;10.33;;;9.33;;
2720;SDS011;1368;49.484;11.112;2023-08-17T10:15:33;9.97;;;9.13;;
2720;SDS011;1368;49.484;11.112;2023-08-17T10:20:34;10.10;;;9.10;;
2720;SDS011;1368;49.484;11.112;2023-08-17T10:23:09;10.83;;;9.83;;
2720;SDS011;1368;49.484;11.112;2023-08-17T10:25:47;10.77;;;9.63;;
2720;SDS011;1368;49.484;11.112;2023-08-17T10:28:14;11.13;;;9.93;;
2720;SDS011;1368;49.484;11.112;2023-08-17T10:30:41;11.03;;;9.57;;
2720;SDS011;1368;49.484;11.112;2023-08-17T10:33:07;11.33;;;9.33;;
2720;SDS011;1368;49.484;11.112;2023-08-17T10:35:34;12.70;;;9.50;;
2720;SDS011;1368;49.484;11.112;2023-08-17T10:38:02;12.70;;;10.57;;
2720;SDS011;1368;49.484;11.112;2023-08-17T10:40:34;11.63;;;10.63;;
2720;SDS011;1368;49.484;11.112;2023-08-17T10:43:00;12.10;;;10.80;;
2720;SDS011;1368;49.484;11.112;2023-08-17T10:45:29;10.03;;;8.90;;
2720;SDS011;1368;49.484;11.112;2023-08-17T10:48:00;12.47;;;11.17;;
2720;SDS011;1368;49.484;11.112;2023-08-17T10:50:25;10.37;;;9.30;;
2720;SDS011;1368;49.484;11.112;2023-08-17T10:52:53;13.07;;;9.67;;
2720;SDS011;1368;49.484;11.112;2023-08-17T10:55:35;10.63;;;9.80;;
2720;SDS011;1368;49.484;11.112;2023-08-17T10:58:02;14.20;;;9.87;;
2720;SDS011;1368;49.484;11.112;2023-08-17T11:00:35;11.20;;;10.20;;
2720;SDS011;1368;49.484;11.112;2023-08-17T11:03:06;11.27;;;10.20;;
2720;SDS011;1368;49.484;11.112;2023-08-17T11:05:36;11.10;;;10.00;;
2720;SDS011;1368;49.484;11.112;2023-08-17T11:11:11;12.83;;;10.50;;
2720;SDS011;1368;49.484;11.112;2023-08-17T11:13:38;10.50;;;9.50;;
2720;SDS011;1368;49.484;11.112;2023-08-17T11:16:10;12.43;;;10.23;;
2720;SDS011;1368;49.484;11.112;2023-08-17T11:18:36;11.50;;;9.87;;
2720;SDS011;1368;49.484;11.112;2023-08-17T11:21:03;10.80;;;9.70;;
2720;SDS011;1368;49.484;11.112;2023-08-17T11:23:30;11.53;;;10.33;;
2720;SDS011;1368;49.484;11.112;2023-08-17T11:25:56;10.57;;;9.50;;
2720;SDS011;1368;49.484;11.112;2023-08-17T11:28:22;11.10;;;10.10;;
2720;SDS011;1368;49.484;11.112;2023-08-17T11:30:57;9.53;;;8.63;;
2720;SDS011;1368;49.484;11.112;2023-08-17T11:33:27;11.07;;;9.97;;
2720;SDS011;1368;49.484;11.112;2023-08-17T11:35:57;10.97;;;9.87;;
2720;SDS011;1368;49.484;11.112;2023-08-17T11:38:24;11.67;;;10.67;;
2720;SDS011;1368;49.484;11.112;2023-08-17T11:40:51;11.20;;;10.10;;
2720;SDS011;1368;49.484;11.112;2023-08-17T11:43:17;11.10;;;10.00;;
2720;SDS011;1368;49.484;11.112;2023-08-17T11:45:45;11.37;;;10.37;;
2720;SDS011;1368;49.484;11.112;2023-08-17T11:48:11;11.07;;;9.90;;
2720;SDS011;1368;49.484;11.112;2023-08-17T11:50:37;15.73;;;10.57;;
2720;SDS011;1368;49.484;11.112;2023-08-17T11:53:04;11.53;;;10.33;;
2720;SDS011;1368;49.484;11.112;2023-08-17T11:55:30;11.57;;;10.47;;
2720;SDS011;1368;49.484;11.112;2023-08-17T11:57:56;11.30;;;10.20;;
2720;SDS011;1368;49.484;11.112;2023-08-17T12:00:21;13.23;;;9.73;;
2720;SDS011;1368;49.484;11.112;2023-08-17T12:02:50;11.00;;;10.00;;
2720;SDS011;1368;49.484;11.112;2023-08-17T12:05:23;14.60;;;11.27;;
2720;SDS011;1368;49.484;11.112;2023-08-17T12:07:55;10.50;;;9.60;;
2720;SDS011;1368;49.484;11.112;2023-08-17T12:10:20;9.83;;;8.90;;
2720;SDS011;1368;49.484;11.112;2023-08-17T12:12:47;11.27;;;10.20;;
2720;SDS011;1368;49.484;11.112;2023-08-17T12:15:13;11.33;;;10.33;;
2720;SDS011;1368;49.484;11.112;2023-08-17T12:17:47;11.83;;;10.40;;
2720;SDS011;1368;49.484;11.112;2023-08-17T12:20:20;11.60;;;10.60;;
2720;SDS011;1368;49.484;11.112;2023-08-17T12:22:46;12.83;;;11.33;;
2720;SDS011;1368;49.484;11.112;2023-08-17T12:25:12;11.73;;;10.30;;
2720;SDS011;1368;49.484;11.112;2023-08-17T12:27:38;12.40;;;10.43;;
2720;SDS011;1368;49.484;11.112;2023-08-17T12:30:04;11.47;;;9.40;;
2720;SDS011;1368;49.484;11.112;2023-08-17T12:32:36;10.47;;;9.47;;
2720;SDS011;1368;49.484;11.112;2023-08-17T12:35:02;11.57;;;10.50;;
2720;SDS011;1368;49.484;11.112;2023-08-17T12:37:28;10.10;;;9.20;;
2720;SDS011;1368;49.484;11.112;2023-08-17T12:39:54;13.50;;;10.23;;
2720;SDS011;1368;49.484;11.112;2023-08-17T12:42:20;10.80;;;9.70;;
2720;SDS011;1368;49.484;11.112;2023-08-17T12:44:45;11.33;;;10.23;;
2720;SDS011;1368;49.484;11.112;2023-08-17T12:47:11;11.50;;;10.30;;
2720;SDS011;1368;49.484;11.112;2023-08-17T12:49:36;10.40;;;9.50;;
2720;SDS011;1368;49.484;11.112;2023-08-17T12:52:02;11.57;;;10.43;;
2720;SDS011;1368;49.484;11.112;2023-08-17T12:54:28;11.23;;;10.27;;
2720;SDS011;1368;49.484;11.112;2023-08-17T12:56:54;10.30;;;9.30;;
2720;SDS011;1368;49.484;11.112;2023-08-17T12:59:19;13.10;;;10.53;;
2720;SDS011;1368;49.484;11.112;2023-08-17T13:01:45;10.23;;;9.30;;
2720;SDS011;1368;49.484;11.112;2023-08-17T13:04:10;11.20;;;10.00;;
2720;SDS011;1368;49.484;11.112;2023-08-17T13:06:36;10.60;;;9.50;;
2720;SDS011;1368;49.484;11.112;2023-08-17T13:09:01;10.33;;;9.33;;
2720;SDS011;1368;49.484;11.112;2023-08-17T13:11:27;9.83;;;8.93;;
2720;SDS011;1368;49.484;11.112;2023-08-17T13:13:52;9.97;;;9.03;;
2720;SDS011;1368;49.484;11.112;2023-08-17T13:16:18;11.03;;;10.03;;
2720;SDS011;1368;49.484;11.112;2023-08-17T13:18:43;11.10;;;9.90;;
2720;SDS011;1368;49.484;11.112;2023-08-17T13:21:09;9.83;;;9.03;;
2720;SDS011;1368;49.484;11.112;2023-08-17T13:23:35;9.40;;;8.50;;
2720;SDS011;1368;49.484;11.112;2023-08-17T13:26:00;10.30;;;9.17;;
2720;SDS011;1368;49.484;11.112;2023-08-17T13:28:26;10.23;;;9.20;;
2720;SDS011;1368;49.484;11.112;2023-08-17T13:30:51;9.50;;;8.23;;
2720;SDS011;1368;49.484;11.112;2023-08-17T13:33:17;13.33;;;8.20;;
2720;SDS011;1368;49.484;11.112;2023-08-17T13:35:43;9.30;;;8.40;;
2720;SDS011;1368;49.484;11.112;2023-08-17T13:38:08;8.70;;;7.90;;
2720;SDS011;1368;49.484;11.112;2023-08-17T13:40:34;7.53;;;6.73;;
2720;SDS011;1368;49.484;11.112;2023-08-17T13:43:01;9.90;;;9.00;;
2720;SDS011;1368;49.484;11.112;2023-08-17T13:45:28;10.17;;;8.67;;
2720;SDS011;1368;49.484;11.112;2023-08-17T13:47:53;8.73;;;7.90;;
2720;SDS011;1368;49.484;11.112;2023-08-17T13:50:19;8.70;;;7.90;;
2720;SDS011;1368;49.484;11.112;2023-08-17T13:52:44;10.07;;;8.80;;
2720;SDS011;1368;49.484;11.112;2023-08-17T13:55:11;9.90;;;9.00;;
2720;SDS011;1368;49.484;11.112;2023-08-17T13:57:37;9.13;;;7.80;;
2720;SDS011;1368;49.484;11.112;2023-08-17T14:00:03;10.07;;;8.97;;
2720;SDS011;1368;49.484;11.112;2023-08-17T14:02:29;11.10;;;9.70;;
2720;SDS011;1368;49.484;11.112;2023-08-17T14:04:54;11.87;;;10.80;;
2720;SDS011;1368;49.484;11.112;2023-08-17T14:07:20;11.40;;;10.40;;
2720;SDS011;1368;49.484;11.112;2023-08-17T14:09:45;12.10;;;10.70;;
2720;SDS011;1368;49.484;11.112;2023-08-17T14:12:11;11.40;;;10.07;;
2720;SDS011;1368;49.484;11.112;2023-08-17T14:14:37;11.97;;;10.87;;
2720;SDS011;1368;49.484;11.112;2023-08-17T14:17:02;13.00;;;11.90;;
2720;SDS011;1368;49.484;11.112;2023-08-17T14:19:28;13.83;;;12.00;;
2720;SDS011;1368;49.484;11.112;2023-08-17T14:21:53;13.20;;;11.50;;
2720;SDS011;1368;49.484;11.112;2023-08-17T14:24:19;13.10;;;11.87;;
2720;SDS011;1368;49.484;11.112;2023-08-17T14:26:45;12.83;;;11.27;;
2720;SDS011;1368;49.484;11.112;2023-08-17T14:29:10;15.50;;;11.80;;
2720;SDS011;1368;49.484;11.112;2023-08-17T14:31:36;15.30;;;11.50;;
2720;SDS011;1368;49.484;11.112;2023-08-17T14:34:01;11.90;;;10.80;;
2720;SDS011;1368;49.484;11.112;2023-08-17T14:36:27;12.97;;;10.93;;
2720;SDS011;1368;49.484;11.112;2023-08-17T14:38:52;12.60;;;10.27;;
2720;SDS011;1368;49.484;11.112;2023-08-17T14:41:18;12.07;;;10.90;;
2720;SDS011;1368;49.484;11.112;2023-08-17T14:43:43;11.87;;;10.67;;
2720;SDS011;1368;49.484;11.112;2023-08-17T14:46:09;12.70;;;10.93;;
2720;SDS011;1368;49.484;11.112;2023-08-17T14:48:35;11.30;;;10.20;;